createdAt,value
2019-03-19T00:03:00.620Z,100512.77
2019-03-19T00:06:02.537Z,100513.28
2019-03-19T00:09:05.569Z,100517.56
2019-03-19T00:12:07.632Z,100526.09
2019-03-19T00:15:10.398Z,100535.34
2019-03-19T00:18:12.543Z,100534.73
2019-03-19T00:21:14.472Z,100541.09
2019-03-19T00:24:16.460Z,100544.41
2019-03-19T00:27:18.350Z,100552.34
2019-03-19T00:30:20.224Z,100546.28
2019-03-19T00:33:22.138Z,100544.61
2019-03-19T00:36:24.608Z,100548.59
2019-03-19T00:39:26.544Z,100553.58
2019-03-19T00:42:28.526Z,100553.05
2019-03-19T00:45:30.417Z,100564.00
2019-03-19T00:48:32.339Z,100562.12
2019-03-19T00:51:34.175Z,100560.23
2019-03-19T00:54:36.210Z,100556.70
2019-03-19T00:57:38.143Z,100557.22
2019-03-19T01:00:40.135Z,100560.23
2019-03-19T01:03:42.058Z,100563.16
2019-03-19T01:06:44.010Z,100566.90
2019-03-19T01:09:45.930Z,100564.83
2019-03-19T01:12:47.818Z,100568.13
2019-03-19T01:15:49.839Z,100569.71
2019-03-19T01:18:51.707Z,100575.03
2019-03-19T01:21:54.621Z,100571.28
2019-03-19T01:24:56.557Z,100577.75
2019-03-19T01:27:58.552Z,100580.45
2019-03-19T01:31:00.454Z,100588.59
2019-03-19T01:34:02.368Z,100584.52
2019-03-19T01:37:04.282Z,100587.55
2019-03-19T01:40:08.580Z,100589.20
2019-03-19T01:43:10.490Z,100586.92
2019-03-19T01:46:12.410Z,100583.27
2019-03-19T01:49:14.497Z,100579.84
2019-03-19T01:52:16.328Z,100584.21
2019-03-19T01:55:18.414Z,100587.97
2019-03-19T01:58:20.387Z,100587.97
2019-03-19T02:01:22.580Z,100591.62
2019-03-19T02:04:24.510Z,100596.39
2019-03-19T02:07:26.504Z,100595.45
2019-03-19T02:10:28.617Z,100600.46
2019-03-19T02:13:30.495Z,100610.24
2019-03-19T02:16:32.414Z,100610.05
2019-03-19T02:19:34.347Z,100615.24
2019-03-19T02:22:36.259Z,100624.30
2019-03-19T02:25:38.261Z,100622.77
2019-03-19T02:28:43.016Z,100634.31
2019-03-19T02:31:44.935Z,100634.61
2019-03-19T02:34:47.023Z,100636.30
2019-03-19T02:37:48.953Z,100647.55
2019-03-19T02:40:50.874Z,100645.03
2019-03-19T02:43:52.956Z,100646.50
2019-03-19T02:46:54.864Z,100647.86
2019-03-19T02:49:56.826Z,100648.91
2019-03-19T02:52:58.864Z,100651.20
2019-03-19T02:56:00.945Z,100657.97
2019-03-19T02:59:02.839Z,100656.80
2019-03-19T03:02:04.785Z,100657.36
2019-03-19T03:05:13.092Z,100661.95
2019-03-19T03:08:15.095Z,100657.55
2019-03-19T03:11:17.046Z,100665.67
2019-03-19T03:14:19.581Z,100672.67
2019-03-19T03:17:21.536Z,100677.27
2019-03-19T03:20:23.421Z,100675.08
2019-03-19T03:23:25.454Z,100686.41
2019-03-19T03:26:27.398Z,100681.33
2019-03-19T03:29:29.419Z,100685.39
2019-03-19T03:32:31.296Z,100697.66
2019-03-19T03:35:33.434Z,100703.41
2019-03-19T03:38:35.986Z,100705.89
2019-03-19T03:41:38.258Z,100694.42
2019-03-19T03:44:40.119Z,100699.84
2019-03-19T03:47:42.031Z,100702.13
2019-03-19T03:50:43.903Z,100702.13
2019-03-19T03:53:45.957Z,100708.97
2019-03-19T03:57:01.395Z,100711.68
2019-03-19T03:59:52.317Z,100717.70
2019-03-19T04:02:54.275Z,100723.03
2019-03-19T04:05:56.188Z,100732.17
2019-03-19T04:08:58.077Z,100745.41
2019-03-19T04:12:00.060Z,100733.93
2019-03-19T04:15:02.037Z,100739.75
2019-03-19T04:18:04.084Z,100739.52
2019-03-19T04:21:06.070Z,100746.39
2019-03-19T04:24:07.941Z,100742.73
2019-03-19T04:27:15.787Z,100744.67
2019-03-19T04:30:18.378Z,100748.31
2019-03-19T04:33:20.377Z,100751.20
2019-03-19T04:36:22.420Z,100759.54
2019-03-19T04:39:24.450Z,100763.66
2019-03-19T04:42:26.511Z,100771.36
2019-03-19T04:45:28.395Z,100773.88
2019-03-19T04:48:30.322Z,100778.70
2019-03-19T04:51:32.203Z,100780.80
2019-03-19T04:54:34.179Z,100778.89
2019-03-19T04:57:36.284Z,100785.66
2019-03-19T05:00:38.209Z,100791.38
2019-03-19T05:03:40.150Z,100798.05
2019-03-19T05:06:42.095Z,100802.05
2019-03-19T05:09:44.117Z,100801.55
2019-03-19T05:12:46.093Z,100808.00
2019-03-19T05:15:47.968Z,100818.24
2019-03-19T05:18:49.889Z,100815.25
2019-03-19T05:21:51.887Z,100826.49
2019-03-19T05:24:53.770Z,100817.34
2019-03-19T05:27:55.795Z,100820.90
2019-03-19T05:30:57.653Z,100822.32
2019-03-19T05:33:59.642Z,100822.94
2019-03-19T05:37:01.598Z,100822.34
2019-03-19T05:40:09.985Z,100828.38
2019-03-19T05:43:11.957Z,100823.16
2019-03-19T05:46:13.877Z,100835.05
2019-03-19T05:49:15.838Z,100834.20
2019-03-19T05:52:17.797Z,100834.63
2019-03-19T05:55:19.682Z,100838.68
2019-03-19T05:58:21.683Z,100847.73
2019-03-19T06:01:23.621Z,100852.74
2019-03-19T06:04:25.797Z,100862.23
2019-03-19T06:07:27.665Z,100867.66
2019-03-19T06:10:29.585Z,100868.45
2019-03-19T06:13:31.470Z,100870.84
2019-03-19T06:16:33.365Z,100862.36
2019-03-19T06:19:35.286Z,100863.08
2019-03-19T06:22:37.178Z,100868.88
2019-03-19T06:25:39.590Z,100875.73
2019-03-19T06:28:41.542Z,100875.38
2019-03-19T06:31:43.513Z,100879.37
2019-03-19T06:34:45.372Z,100878.86
2019-03-19T06:37:47.283Z,100885.70
2019-03-19T06:40:49.147Z,100891.60
2019-03-19T06:43:51.201Z,100893.38
2019-03-19T06:46:53.343Z,100896.37
2019-03-19T06:49:55.673Z,100899.91
2019-03-19T06:52:57.591Z,100906.08
2019-03-19T06:55:59.504Z,100913.99
2019-03-19T06:59:01.668Z,100917.06
2019-03-19T07:02:03.709Z,100912.08
2019-03-19T07:05:07.954Z,100919.80
2019-03-19T07:08:10.145Z,100918.42
2019-03-19T07:11:12.057Z,100921.03
2019-03-19T07:14:14.230Z,100917.65
2019-03-19T07:17:16.238Z,100920.67
2019-03-19T07:20:28.635Z,100926.15
2019-03-19T07:23:30.527Z,100918.03
2019-03-19T07:26:32.443Z,100912.27
2019-03-19T07:29:34.459Z,100915.80
2019-03-19T07:32:36.417Z,100913.06
2019-03-19T07:35:38.369Z,100925.50
2019-03-19T07:38:40.360Z,100912.00
2019-03-19T07:41:42.498Z,100928.28
2019-03-19T07:44:44.466Z,100932.47
2019-03-19T07:47:47.235Z,100932.25
2019-03-19T07:50:49.119Z,100934.75
2019-03-19T07:53:51.027Z,100933.83
2019-03-19T07:56:54.147Z,100944.67
2019-03-19T07:59:56.456Z,100937.46
2019-03-19T08:02:58.333Z,100940.25
2019-03-19T08:06:00.269Z,100947.73
2019-03-19T08:09:04.139Z,100947.17
2019-03-19T08:12:06.215Z,100948.81
2019-03-19T08:15:12.677Z,100954.86
2019-03-19T08:18:14.644Z,100954.36
2019-03-19T08:21:16.609Z,100961.32
2019-03-19T08:24:18.608Z,100964.65
2019-03-19T08:27:20.582Z,100962.44
2019-03-19T08:30:25.069Z,100964.36
2019-03-19T08:33:27.424Z,100964.08
2019-03-19T08:36:29.296Z,100973.99
2019-03-19T08:39:31.221Z,100970.05
2019-03-19T08:42:33.110Z,100974.69
2019-03-19T08:45:34.997Z,100983.06
2019-03-19T08:48:37.774Z,100976.60
2019-03-19T08:51:39.657Z,100978.97
2019-03-19T08:54:41.656Z,100978.98
2019-03-19T08:57:43.606Z,100980.09
2019-03-19T09:00:46.993Z,100981.09
2019-03-19T09:03:52.155Z,100991.12
2019-03-19T09:06:54.122Z,100987.20
2019-03-19T09:09:55.984Z,100995.11
2019-03-19T09:12:57.915Z,101006.13
2019-03-19T09:15:59.796Z,100995.46
2019-03-19T09:19:01.750Z,100992.12
2019-03-19T09:22:03.729Z,100996.52
2019-03-19T09:25:07.448Z,100996.52
2019-03-19T09:28:09.406Z,101004.23
2019-03-19T09:31:11.350Z,101006.47
2019-03-19T09:34:15.079Z,101016.70
2019-03-19T09:37:18.198Z,101009.62
2019-03-19T09:40:21.089Z,101010.04
2019-03-19T09:43:23.017Z,101028.69
2019-03-19T09:46:25.076Z,101025.31
2019-03-19T09:49:27.063Z,101034.93
2019-03-19T09:52:29.139Z,101037.37
2019-03-19T09:55:31.113Z,101031.28
2019-03-19T09:58:33.654Z,101047.56
2019-03-19T10:01:35.716Z,101054.33
2019-03-19T10:04:37.718Z,101051.47
2019-03-19T10:07:39.901Z,101048.84
2019-03-19T10:10:41.863Z,101043.44
2019-03-19T10:13:44.060Z,101032.55
2019-03-19T10:16:45.957Z,101038.55
2019-03-19T10:19:47.868Z,101028.00
2019-03-19T10:22:50.191Z,101021.13
2019-03-19T10:25:52.330Z,101019.38
2019-03-19T10:28:54.216Z,101026.76
2019-03-19T10:31:56.244Z,101019.89
2019-03-19T10:34:58.184Z,101016.37
2019-03-19T10:38:00.238Z,101021.02
2019-03-19T10:41:02.136Z,101010.61
2019-03-19T10:44:04.233Z,101022.55
2019-03-19T10:47:06.190Z,101041.19
2019-03-19T10:50:11.716Z,101047.74
2019-03-19T10:53:13.677Z,101045.94
2019-03-19T10:56:15.626Z,101041.34
2019-03-19T10:59:17.587Z,101045.03
2019-03-19T11:02:19.897Z,101046.14
2019-03-19T11:05:23.206Z,101046.48
2019-03-19T11:08:25.225Z,101048.75
2019-03-19T11:11:27.118Z,101050.62
2019-03-19T11:14:29.026Z,101046.41
2019-03-19T11:17:30.943Z,101053.02
2019-03-19T11:20:32.947Z,101053.53
2019-03-19T11:23:34.766Z,101063.34
2019-03-19T11:26:37.031Z,101057.34
2019-03-19T11:29:38.919Z,101055.64
2019-03-19T11:32:40.911Z,101059.55
2019-03-19T11:35:42.919Z,101059.06
2019-03-19T11:38:45.117Z,101061.16
2019-03-19T11:41:48.200Z,101061.61
2019-03-19T11:44:50.151Z,101062.19
2019-03-19T11:47:52.148Z,101060.25
2019-03-19T11:50:54.060Z,101062.59
2019-03-19T11:53:55.963Z,101053.59
2019-03-19T11:56:57.918Z,101070.12
2019-03-19T12:00:10.448Z,101068.14
2019-03-19T12:03:14.897Z,101071.15
2019-03-19T12:06:09.802Z,101065.63
2019-03-19T12:09:11.671Z,101059.71
2019-03-19T12:12:13.700Z,101073.38
2019-03-19T12:15:15.651Z,101070.50
2019-03-19T12:18:17.647Z,101067.69
2019-03-19T12:21:19.549Z,101077.32
2019-03-19T12:24:21.541Z,101072.16
2019-03-19T12:27:23.531Z,101065.61
2019-03-19T12:30:28.252Z,101077.00
2019-03-19T12:33:40.112Z,101075.71
2019-03-19T12:36:34.129Z,101079.36
2019-03-19T12:39:36.002Z,101081.44
2019-03-19T12:42:37.956Z,101069.48
2019-03-19T12:45:39.849Z,101077.09
2019-03-19T12:48:41.992Z,101062.75
2019-03-19T12:51:44.085Z,101059.86
2019-03-19T12:54:45.954Z,101059.45
2019-03-19T12:57:47.968Z,101075.04
2019-03-19T13:00:49.901Z,101062.61
2019-03-19T13:03:52.078Z,101061.08
2019-03-19T13:06:54.316Z,101065.03
2019-03-19T13:09:56.360Z,101060.66
2019-03-19T13:12:58.270Z,101057.87
2019-03-19T13:16:00.224Z,101060.55
2019-03-19T13:19:02.150Z,101065.36
2019-03-19T13:22:04.254Z,101067.95
2019-03-19T13:25:11.642Z,101059.64
2019-03-19T13:28:13.685Z,101066.98
2019-03-19T13:31:15.782Z,101063.04
2019-03-19T13:34:18.086Z,101073.73
2019-03-19T13:37:20.279Z,101067.47
2019-03-19T13:40:22.255Z,101067.98
2019-03-19T13:43:24.309Z,101067.69
2019-03-19T13:46:26.299Z,101071.37
2019-03-19T13:49:28.346Z,101075.02
2019-03-19T13:52:30.274Z,101064.87
2019-03-19T13:55:32.328Z,101068.53
2019-03-19T13:58:34.258Z,101074.16
2019-03-19T14:01:36.343Z,101078.50
2019-03-19T14:04:38.541Z,101066.21
2019-03-19T14:07:40.631Z,101068.31
2019-03-19T14:10:42.474Z,101080.28
2019-03-19T14:13:44.568Z,101080.89
2019-03-19T14:16:46.481Z,101084.47
2019-03-19T14:19:48.616Z,101085.60
2019-03-19T14:22:50.542Z,101090.48
2019-03-19T14:25:52.421Z,101090.43
2019-03-19T14:28:54.297Z,101094.36
2019-03-19T14:31:56.524Z,101095.92
2019-03-19T14:34:58.663Z,101104.48
2019-03-19T14:38:01.375Z,101105.55
2019-03-19T14:41:03.430Z,101108.64
2019-03-19T14:44:05.391Z,101109.51
2019-03-19T14:47:07.471Z,101101.88
2019-03-19T14:50:12.045Z,101099.80
2019-03-19T14:53:13.996Z,101104.61
2019-03-19T14:56:16.002Z,101105.64
2019-03-19T14:59:17.990Z,101102.16
2019-03-19T15:02:20.966Z,101099.03
2019-03-19T15:05:23.058Z,101114.61
2019-03-19T15:08:25.581Z,101110.02
2019-03-19T15:11:27.841Z,101108.24
2019-03-19T15:14:29.796Z,101120.02
2019-03-19T15:17:31.861Z,101117.75
2019-03-19T15:20:34.975Z,101119.98
2019-03-19T15:23:37.075Z,101119.08
2019-03-19T15:26:40.428Z,101120.58
2019-03-19T15:29:42.434Z,101129.40
2019-03-19T15:32:45.099Z,101121.73
2019-03-19T15:35:47.193Z,101132.86
2019-03-19T15:38:49.124Z,101136.20
2019-03-19T15:41:51.074Z,101139.42
2019-03-19T15:44:53.072Z,101140.77
2019-03-19T15:47:55.182Z,101154.50
2019-03-19T15:50:57.210Z,101153.64
2019-03-19T15:53:59.133Z,101154.39
2019-03-19T15:57:01.018Z,101157.74
2019-03-19T16:00:06.870Z,101154.65
2019-03-19T16:03:08.768Z,101160.59
2019-03-19T16:06:10.975Z,101160.55
2019-03-19T16:09:13.269Z,101168.59
2019-03-19T16:12:15.494Z,101175.67
2019-03-19T16:15:21.042Z,101190.18
2019-03-19T16:18:23.717Z,101193.75
2019-03-19T16:21:25.606Z,101196.40
2019-03-19T16:24:27.886Z,101200.00
2019-03-19T16:27:29.863Z,101209.14
2019-03-19T16:30:31.985Z,101207.13
2019-03-19T16:33:34.829Z,101207.56
2019-03-19T16:36:37.028Z,101223.71
2019-03-19T16:39:39.109Z,101228.12
2019-03-19T16:42:42.275Z,101229.98
2019-03-19T16:45:44.884Z,101235.30
2019-03-19T16:48:46.952Z,101242.89
2019-03-19T16:51:49.280Z,101246.00
2019-03-19T16:54:51.367Z,101247.30
2019-03-19T16:57:53.564Z,101253.87
2019-03-19T17:00:55.595Z,101251.14
2019-03-19T17:03:57.575Z,101261.66
2019-03-19T17:06:59.751Z,101265.12
2019-03-19T17:10:03.282Z,101270.80
2019-03-19T17:13:05.318Z,101281.08
2019-03-19T17:16:07.353Z,101272.62
2019-03-19T17:19:09.508Z,101278.79
2019-03-19T17:22:11.586Z,101280.41
2019-03-19T17:25:21.161Z,101292.33
2019-03-19T17:28:24.559Z,101294.87
2019-03-19T17:31:26.621Z,101302.33
2019-03-19T17:34:30.750Z,101303.74
2019-03-19T17:37:36.507Z,101309.20
2019-03-19T17:40:41.596Z,101311.69
2019-03-19T17:43:43.919Z,101317.61
2019-03-19T17:46:45.831Z,101323.62
2019-03-19T17:49:50.580Z,101321.00
2019-03-19T17:52:53.629Z,101324.30
2019-03-19T17:55:55.716Z,101331.33
2019-03-19T17:58:57.694Z,101331.55
2019-03-19T18:02:01.413Z,101328.43
2019-03-19T18:05:06.041Z,101330.42
2019-03-19T18:08:09.111Z,101336.06
2019-03-19T18:11:13.276Z,101333.27
2019-03-19T18:14:18.625Z,101342.16
2019-03-19T18:17:20.591Z,101352.13
2019-03-19T18:20:22.504Z,101350.12
2019-03-19T18:23:26.342Z,101348.89
2019-03-19T18:26:28.213Z,101355.05
2019-03-19T18:29:36.163Z,101358.61
2019-03-19T18:32:38.202Z,101352.23
2019-03-19T18:35:41.993Z,101359.83
2019-03-19T18:38:44.067Z,101365.27
2019-03-19T18:41:50.377Z,101380.95
2019-03-19T18:44:54.466Z,101372.33
2019-03-19T18:47:56.487Z,101382.37
2019-03-19T18:50:58.860Z,101381.49
2019-03-19T18:54:00.750Z,101388.39
2019-03-19T18:57:03.357Z,101383.53
2019-03-19T19:00:11.529Z,101391.55
2019-03-19T19:03:15.847Z,101398.91
2019-03-19T19:06:17.729Z,101396.77
2019-03-19T19:09:21.145Z,101404.42
2019-03-19T19:12:24.632Z,101404.75
2019-03-19T19:15:27.738Z,101408.33
2019-03-19T19:18:29.683Z,101412.54
2019-03-19T19:21:32.777Z,101420.91
2019-03-19T19:24:34.769Z,101413.21
2019-03-19T19:27:36.712Z,101415.09
2019-03-19T19:30:41.852Z,101422.58
2019-03-19T19:33:43.865Z,101426.30
2019-03-19T19:36:47.579Z,101428.09
2019-03-19T19:39:53.904Z,101431.45
2019-03-19T19:42:57.841Z,101431.31
2019-03-19T19:45:59.810Z,101432.48
2019-03-19T19:49:05.352Z,101440.34
2019-03-19T19:52:13.740Z,101442.86
2019-03-19T19:55:16.274Z,101450.45
2019-03-19T19:58:19.276Z,101454.63
2019-03-19T20:01:21.837Z,101456.19
2019-03-19T20:04:23.739Z,101456.75
2019-03-19T20:07:25.895Z,101460.43
2019-03-19T20:10:32.514Z,101461.30
2019-03-19T20:13:35.038Z,101460.67
2019-03-19T20:16:37.190Z,101460.98
2019-03-19T20:19:40.455Z,101475.23
2019-03-19T20:22:44.707Z,101477.41
2019-03-19T20:25:46.423Z,101482.54
2019-03-19T20:28:50.200Z,101482.77
2019-03-19T20:31:52.174Z,101488.11
2019-03-19T20:34:54.073Z,101484.44
2019-03-19T20:37:56.257Z,101487.37
2019-03-19T20:41:00.514Z,101490.92
2019-03-19T20:44:05.764Z,101499.10
2019-03-19T20:47:07.877Z,101501.67
2019-03-19T20:50:16.068Z,101508.29
2019-03-19T20:53:19.063Z,101506.64
2019-03-19T20:56:22.825Z,101509.03
2019-03-19T20:59:25.718Z,101511.07
2019-03-19T21:02:28.174Z,101517.53
2019-03-19T21:05:32.417Z,101519.56
2019-03-19T21:08:34.495Z,101517.17
2019-03-19T21:11:37.162Z,101520.08
2019-03-19T21:14:39.136Z,101517.91
2019-03-19T21:17:41.778Z,101527.09
2019-03-19T21:20:43.724Z,101520.67
2019-03-19T21:23:46.037Z,101522.55
2019-03-19T21:26:49.601Z,101520.67
2019-03-19T21:29:52.901Z,101528.44
2019-03-19T21:32:54.852Z,101531.50
2019-03-19T21:35:58.035Z,101532.50
2019-03-19T21:38:59.893Z,101540.14
2019-03-19T21:42:01.919Z,101545.41
2019-03-19T21:45:09.794Z,101548.86
2019-03-19T21:48:14.709Z,101551.11
2019-03-19T21:51:16.621Z,101548.61
2019-03-19T21:54:18.611Z,101553.03
2019-03-19T21:57:20.510Z,101558.44
2019-03-19T22:00:23.674Z,101552.23
2019-03-19T22:03:25.674Z,101553.11
2019-03-19T22:06:27.521Z,101559.88
2019-03-19T22:09:29.538Z,101559.72
2019-03-19T22:12:31.686Z,101561.70
2019-03-19T22:15:33.786Z,101556.77
2019-03-19T22:18:35.701Z,101564.89
2019-03-19T22:21:37.578Z,101567.23
2019-03-19T22:24:39.499Z,101569.26
2019-03-19T22:27:41.634Z,101573.16
2019-03-19T22:30:43.579Z,101572.69
2019-03-19T22:33:45.461Z,101569.98
2019-03-19T22:36:47.391Z,101570.14
2019-03-19T22:39:49.335Z,101571.81
2019-03-19T22:42:51.482Z,101576.23
2019-03-19T22:45:53.396Z,101570.45
2019-03-19T22:48:55.358Z,101573.31
2019-03-19T22:51:57.200Z,101572.95
2019-03-19T22:54:59.238Z,101582.75
2019-03-19T22:58:01.092Z,101583.73
2019-03-19T23:01:03.240Z,101589.87
2019-03-19T23:04:06.950Z,101586.17
2019-03-19T23:07:08.900Z,101587.73
2019-03-19T23:10:10.791Z,101586.90
2019-03-19T23:13:14.036Z,101587.26
2019-03-19T23:16:16.018Z,101595.54
2019-03-19T23:19:17.989Z,101600.47
2019-03-19T23:22:19.870Z,101593.70
2019-03-19T23:25:21.756Z,101599.75
2019-03-19T23:28:23.672Z,101615.83
2019-03-19T23:31:25.647Z,101611.61
2019-03-19T23:34:37.887Z,101615.39
2019-03-19T23:37:31.379Z,101615.43
2019-03-19T23:40:33.349Z,101623.06
2019-03-19T23:43:36.426Z,101620.55
2019-03-19T23:46:38.418Z,101625.64
2019-03-19T23:49:40.389Z,101626.16
2019-03-19T23:52:42.377Z,101626.66
2019-03-19T23:55:44.354Z,101628.69
2019-03-19T23:58:46.260Z,101626.66
